Time;durP1;ratioP1;P1;durP2;ratioP2;P2;SDS_P1;SDS_P2;PMS_P1;PMS_P2;Temp;Humidity;BMP_temperature;BMP_pressure;BME280_temperature;BME280_humidity;BME280_pressure;Samples;Min_cycle;Max_cycle;Signal;HPM_P1;HPM_P2
2022/12/18 00:01:40;;;;;;;16.27;5.63;;;;;;;;;;5086508;28;20037;-91
2022/12/18 00:04:07;;;;;;;17.17;5.65;;;;;;;;;;5073292;28;20021;-91
2022/12/18 00:06:42;;;;;;;16.98;6.63;;;;;;;;;;5073927;28;20020;-91
2022/12/18 00:09:07;;;;;;;14.55;5.55;;;;;;;;;;5070860;28;20188;-91
2022/12/18 00:11:32;;;;;;;11.82;5.70;;;;;;;;;;5074919;28;20060;-90
2022/12/18 00:13:59;;;;;;;13.00;5.53;;;;;;;;;;5084980;28;20028;-90
2022/12/18 00:16:25;;;;;;;13.18;4.97;;;;;;;;;;5071193;28;20027;-90
2022/12/18 00:18:55;;;;;;;14.65;5.60;;;;;;;;;;5061922;28;20029;-90
2022/12/18 00:21:21;;;;;;;13.95;5.22;;;;;;;;;;5066531;28;20043;-91
2022/12/18 00:23:47;;;;;;;13.68;5.05;;;;;;;;;;5066465;28;20029;-91
2022/12/18 00:26:32;;;;;;;14.52;5.32;;;;;;;;;;5066407;28;20032;-91
2022/12/18 00:28:58;;;;;;;12.25;5.15;;;;;;;;;;5067844;28;20056;-91
2022/12/18 00:31:24;;;;;;;13.23;5.93;;;;;;;;;;5066152;28;20029;-90
2022/12/18 00:33:50;;;;;;;13.93;5.88;;;;;;;;;;5064701;28;20123;-90
2022/12/18 00:36:17;;;;;;;13.50;5.50;;;;;;;;;;5066005;28;20456;-90
2022/12/18 00:38:43;;;;;;;11.95;5.72;;;;;;;;;;5067710;28;20027;-91
2022/12/18 00:41:09;;;;;;;12.75;5.75;;;;;;;;;;5067628;28;20123;-90
2022/12/18 00:43:35;;;;;;;13.27;5.78;;;;;;;;;;5068410;28;20028;-91
2022/12/18 00:46:00;;;;;;;13.00;5.40;;;;;;;;;;5073849;28;20086;-90
2022/12/18 00:48:26;;;;;;;17.42;5.43;;;;;;;;;;5069313;28;20032;-90
2022/12/18 00:50:51;;;;;;;15.05;5.10;;;;;;;;;;5063688;28;20025;-90
2022/12/18 00:53:16;;;;;;;16.50;5.40;;;;;;;;;;5065831;28;20028;-90
2022/12/18 00:55:42;;;;;;;12.93;4.47;;;;;;;;;;5069698;28;20020;-89
2022/12/18 00:58:08;;;;;;;12.27;4.90;;;;;;;;;;5065890;28;20514;-91
2022/12/18 01:00:33;;;;;;;10.10;4.25;;;;;;;;;;5066357;28;20510;-92
2022/12/18 01:02:59;;;;;;;11.60;5.13;;;;;;;;;;5064740;28;20476;-91
2022/12/18 01:05:24;;;;;;;13.00;5.03;;;;;;;;;;5058379;28;20511;-92
2022/12/18 01:07:50;;;;;;;12.65;5.13;;;;;;;;;;5063978;28;20115;-91
2022/12/18 01:10:15;;;;;;;13.50;4.55;;;;;;;;;;5062413;28;20055;-92
2022/12/18 01:12:41;;;;;;;14.32;5.18;;;;;;;;;;5067858;28;20025;-91
2022/12/18 01:15:07;;;;;;;16.20;5.13;;;;;;;;;;5065513;28;20302;-91
2022/12/18 01:17:33;;;;;;;17.10;5.20;;;;;;;;;;5071352;28;20675;-91
2022/12/18 01:19:58;;;;;;;11.70;4.63;;;;;;;;;;5064239;28;20032;-91
2022/12/18 01:22:23;;;;;;;10.82;4.28;;;;;;;;;;5063541;28;20692;-89
2022/12/18 01:24:49;;;;;;;11.27;4.40;;;;;;;;;;5064387;28;20029;-90
2022/12/18 01:27:14;;;;;;;12.38;4.72;;;;;;;;;;5070402;28;20025;-90
2022/12/18 01:29:39;;;;;;;14.98;5.07;;;;;;;;;;5058915;28;20505;-90
2022/12/18 01:32:04;;;;;;;12.98;4.88;;;;;;;;;;5068997;28;20107;-91
2022/12/18 01:34:30;;;;;;;13.07;4.47;;;;;;;;;;5060760;28;20025;-90
2022/12/18 01:36:55;;;;;;;12.07;4.40;;;;;;;;;;5077301;28;20483;-91
2022/12/18 01:39:20;;;;;;;10.75;4.57;;;;;;;;;;5073102;28;20040;-91
2022/12/18 01:42:01;;;;;;;10.00;4.25;;;;;;;;;;5064940;28;20840;-91
2022/12/18 01:44:45;;;;;;;12.57;4.93;;;;;;;;;;5068449;28;20032;-91
2022/12/18 01:47:15;;;;;;;11.70;4.70;;;;;;;;;;5068967;28;20071;-91
2022/12/18 01:49:40;;;;;;;10.65;4.32;;;;;;;;;;5067501;28;20028;-91
2022/12/18 01:52:05;;;;;;;10.68;4.43;;;;;;;;;;5068615;28;20575;-91
2022/12/18 01:54:31;;;;;;;11.18;4.32;;;;;;;;;;5067585;28;20028;-90
2022/12/18 01:56:56;;;;;;;13.43;4.28;;;;;;;;;;5065733;28;20021;-91
2022/12/18 01:59:21;;;;;;;10.70;4.15;;;;;;;;;;5064519;28;20032;-91
2022/12/18 02:01:47;;;;;;;14.60;4.70;;;;;;;;;;5064752;28;20355;-91
2022/12/18 02:04:26;;;;;;;12.48;4.05;;;;;;;;;;5067043;28;20041;-91
2022/12/18 02:07:03;;;;;;;14.43;4.50;;;;;;;;;;5068054;28;20021;-91
2022/12/18 02:09:35;;;;;;;13.48;4.00;;;;;;;;;;5056664;28;20111;-91
2022/12/18 02:12:00;;;;;;;12.88;4.53;;;;;;;;;;5063578;28;20051;-91
2022/12/18 02:14:35;;;;;;;10.93;4.50;;;;;;;;;;5067268;28;20048;-91
2022/12/18 02:17:12;;;;;;;12.25;4.65;;;;;;;;;;5068587;28;20064;-91
2022/12/18 02:20:07;;;;;;;11.63;4.20;;;;;;;;;;5069621;28;20393;-91
2022/12/18 02:22:50;;;;;;;14.32;4.40;;;;;;;;;;5072016;28;20009;-91
2022/12/18 02:25:26;;;;;;;13.23;4.40;;;;;;;;;;5118129;28;20016;-90
2022/12/18 02:27:51;;;;;;;12.80;4.18;;;;;;;;;;5097401;28;20074;-91
2022/12/18 02:30:17;;;;;;;11.77;4.00;;;;;;;;;;5074860;28;20455;-91
2022/12/18 02:32:49;;;;;;;11.27;4.35;;;;;;;;;;5067262;28;20033;-90
2022/12/18 02:35:25;;;;;;;11.25;4.45;;;;;;;;;;5106430;28;20042;-90
2022/12/18 02:37:51;;;;;;;11.93;4.82;;;;;;;;;;5086916;28;20024;-90
2022/12/18 02:40:17;;;;;;;13.27;5.10;;;;;;;;;;5085556;28;20021;-90
2022/12/18 02:42:42;;;;;;;13.40;4.85;;;;;;;;;;5079227;28;20016;-91
2022/12/18 02:45:07;;;;;;;14.77;4.97;;;;;;;;;;5067637;28;20091;-91
2022/12/18 02:47:37;;;;;;;12.85;4.55;;;;;;;;;;5071121;28;20036;-91
2022/12/18 02:50:21;;;;;;;14.02;5.35;;;;;;;;;;5065285;28;20553;-91
2022/12/18 02:53:06;;;;;;;13.40;4.75;;;;;;;;;;5086072;28;20135;-91
2022/12/18 02:55:49;;;;;;;14.98;5.30;;;;;;;;;;5071661;28;20052;-91
2022/12/18 02:58:15;;;;;;;12.43;5.15;;;;;;;;;;5072919;28;20040;-90
2022/12/18 03:03:45;;;;;;;12.95;5.25;;;;;;;;;;5052705;23;20056;-95
2022/12/18 03:06:24;;;;;;;14.40;5.20;;;;;;;;;;4911340;29;20121;-95
2022/12/18 03:08:53;;;;;;;17.75;5.95;;;;;;;;;;4911516;29;20119;-95
2022/12/18 03:12:22;;;;;;;17.02;5.90;;;;;;;;;;4913808;29;20016;-96
2022/12/18 03:14:07;;;;;;;16.45;6.25;;;;;;;;;;4911373;29;20032;-95
2022/12/18 03:16:35;;;;;;;16.25;5.95;;;;;;;;;;4911265;29;20111;-95
2022/12/18 03:19:03;;;;;;;16.25;5.72;;;;;;;;;;4910875;29;20028;-95
2022/12/18 03:21:35;;;;;;;13.52;5.60;;;;;;;;;;4906528;29;20079;-95
2022/12/18 03:24:03;;;;;;;16.98;6.40;;;;;;;;;;4910697;29;20127;-95
2022/12/18 03:26:36;;;;;;;15.93;6.30;;;;;;;;;;4911810;29;20064;-96
2022/12/18 03:29:07;;;;;;;16.13;6.07;;;;;;;;;;4911352;29;20031;-96
2022/12/18 03:31:33;;;;;;;16.35;6.15;;;;;;;;;;4911584;29;20283;-96
2022/12/18 03:34:04;;;;;;;15.77;5.85;;;;;;;;;;4910509;29;20444;-96
2022/12/18 03:36:29;;;;;;;14.15;4.85;;;;;;;;;;4911704;29;20133;-96
2022/12/18 03:38:54;;;;;;;13.70;5.22;;;;;;;;;;4909458;29;20028;-93
2022/12/18 03:41:38;;;;;;;14.38;5.50;;;;;;;;;;4910194;29;20042;-94
2022/12/18 03:44:19;;;;;;;14.02;5.80;;;;;;;;;;4910801;29;20158;-96
2022/12/18 03:47:03;;;;;;;12.77;5.40;;;;;;;;;;4908362;29;20039;-93
2022/12/18 03:49:35;;;;;;;15.35;5.88;;;;;;;;;;4910449;29;20032;-96
2022/12/18 03:52:19;;;;;;;15.25;5.40;;;;;;;;;;4909768;29;20028;-93
2022/12/18 03:54:57;;;;;;;16.88;5.88;;;;;;;;;;4896252;29;20029;-96
2022/12/18 03:57:42;;;;;;;14.82;5.65;;;;;;;;;;4906100;29;20062;-93
2022/12/18 04:00:19;;;;;;;16.60;6.57;;;;;;;;;;4904178;29;20028;-95
2022/12/18 04:03:04;;;;;;;15.05;5.57;;;;;;;;;;4907184;29;20043;-93
2022/12/18 04:05:37;;;;;;;13.02;5.72;;;;;;;;;;4906440;29;20048;-96
2022/12/18 04:08:02;;;;;;;14.30;6.10;;;;;;;;;;4920030;29;20032;-96
2022/12/18 04:10:49;;;;;;;13.15;5.55;;;;;;;;;;4905699;29;20036;-96
2022/12/18 04:13:23;;;;;;;15.65;6.63;;;;;;;;;;4901395;29;20127;-95
2022/12/18 04:15:55;;;;;;;17.40;6.68;;;;;;;;;;4905828;29;20036;-96
2022/12/18 04:18:24;;;;;;;17.52;6.22;;;;;;;;;;4906595;29;20036;-95
2022/12/18 04:20:49;;;;;;;14.93;5.95;;;;;;;;;;4912259;29;20043;-96
2022/12/18 04:23:15;;;;;;;15.23;5.95;;;;;;;;;;4907265;29;20141;-95
2022/12/18 04:25:40;;;;;;;17.52;6.22;;;;;;;;;;4909260;29;20047;-95
2022/12/18 04:28:40;;;;;;;15.23;6.22;;;;;;;;;;4900288;29;20076;-95
2022/12/18 04:31:06;;;;;;;16.52;6.65;;;;;;;;;;4907903;29;20051;-95
2022/12/18 04:33:31;;;;;;;13.95;6.00;;;;;;;;;;4905280;29;20091;-94
2022/12/18 04:35:56;;;;;;;18.63;6.75;;;;;;;;;;4909008;29;20020;-95
2022/12/18 04:38:22;;;;;;;19.05;6.40;;;;;;;;;;4916762;29;20078;-94
2022/12/18 04:40:50;;;;;;;21.48;7.13;;;;;;;;;;4901679;29;20056;-94
2022/12/18 04:43:16;;;;;;;17.65;6.20;;;;;;;;;;4909089;29;20500;-94
2022/12/18 04:45:41;;;;;;;18.08;7.30;;;;;;;;;;4903882;29;20031;-94
2022/12/18 04:48:07;;;;;;;18.50;7.68;;;;;;;;;;4919633;29;20377;-94
2022/12/18 04:50:32;;;;;;;19.10;7.32;;;;;;;;;;4909655;29;20448;-94
2022/12/18 04:52:57;;;;;;;22.25;9.07;;;;;;;;;;4903569;29;20381;-95
2022/12/18 04:55:23;;;;;;;22.95;9.52;;;;;;;;;;4905139;29;20031;-94
2022/12/18 04:57:49;;;;;;;25.17;9.10;;;;;;;;;;4910733;29;20030;-94
2022/12/18 05:00:14;;;;;;;23.73;9.43;;;;;;;;;;4912425;29;20036;-94
2022/12/18 05:02:40;;;;;;;26.02;9.80;;;;;;;;;;4908570;29;20060;-94
2022/12/18 05:05:08;;;;;;;21.83;8.98;;;;;;;;;;4913023;29;20030;-95
2022/12/18 05:07:46;;;;;;;34.30;11.15;;;;;;;;;;4909244;29;20047;-94
2022/12/18 05:10:17;;;;;;;26.33;10.18;;;;;;;;;;4910821;29;20028;-94
2022/12/18 05:12:59;;;;;;;31.25;10.82;;;;;;;;;;4911256;29;20476;-95
2022/12/18 05:15:27;;;;;;;26.25;10.77;;;;;;;;;;4905718;29;20059;-95
2022/12/18 05:17:53;;;;;;;26.48;10.57;;;;;;;;;;4908196;29;20051;-96
2022/12/18 05:20:21;;;;;;;28.75;11.13;;;;;;;;;;4910988;29;20031;-94
2022/12/18 05:22:46;;;;;;;30.20;10.50;;;;;;;;;;4907719;29;20072;-94
2022/12/18 05:25:14;;;;;;;31.95;10.63;;;;;;;;;;4910375;29;20032;-94
2022/12/18 05:30:42;;;;;;;28.73;10.68;;;;;;;;;;4911168;29;20114;-94
2022/12/18 05:33:07;;;;;;;29.60;11.02;;;;;;;;;;4908840;29;20776;-95
2022/12/18 05:35:32;;;;;;;37.92;12.75;;;;;;;;;;4910262;29;20031;-95
2022/12/18 05:37:58;;;;;;;35.65;11.80;;;;;;;;;;4910511;29;20555;-94
2022/12/18 05:40:24;;;;;;;40.95;13.23;;;;;;;;;;4910463;29;20388;-94
2022/12/18 05:42:55;;;;;;;35.00;13.07;;;;;;;;;;4911030;29;20035;-94
2022/12/18 05:45:20;;;;;;;34.78;13.00;;;;;;;;;;4908585;29;20499;-94
2022/12/18 05:47:46;;;;;;;33.70;12.60;;;;;;;;;;4908333;29;20035;-95
2022/12/18 05:50:18;;;;;;;36.85;13.32;;;;;;;;;;4911797;29;20032;-94
2022/12/18 05:52:43;;;;;;;30.95;11.40;;;;;;;;;;4905387;29;20028;-94
2022/12/18 05:55:12;;;;;;;33.00;12.40;;;;;;;;;;4916804;29;20036;-95
2022/12/18 05:57:44;;;;;;;34.15;12.35;;;;;;;;;;4919081;29;20088;-96
2022/12/18 06:00:15;;;;;;;35.00;12.50;;;;;;;;;;4913073;29;20032;-95
2022/12/18 06:02:46;;;;;;;33.45;13.02;;;;;;;;;;4913081;29;20040;-95
2022/12/18 06:05:44;;;;;;;33.20;12.73;;;;;;;;;;4909242;29;20064;-95
2022/12/18 06:11:25;;;;;;;35.63;13.25;;;;;;;;;;4835890;29;20386;-94
2022/12/18 06:13:54;;;;;;;37.72;14.35;;;;;;;;;;4837958;29;20038;-96
2022/12/18 06:16:19;;;;;;;36.38;12.85;;;;;;;;;;4819638;29;20026;-94
2022/12/18 06:18:45;;;;;;;40.00;14.15;;;;;;;;;;4835583;29;20510;-95
2022/12/18 06:21:10;;;;;;;42.50;14.32;;;;;;;;;;4838345;29;20041;-94
2022/12/18 06:23:35;;;;;;;38.10;13.48;;;;;;;;;;4836420;29;20038;-94
2022/12/18 06:26:08;;;;;;;40.90;14.15;;;;;;;;;;4817523;29;20080;-94
2022/12/18 06:28:38;;;;;;;41.53;15.73;;;;;;;;;;4819559;29;20037;-94
2022/12/18 06:31:10;;;;;;;43.58;15.82;;;;;;;;;;4822668;29;20022;-94
2022/12/18 06:33:41;;;;;;;44.50;15.30;;;;;;;;;;4837664;29;20037;-96
2022/12/18 06:36:13;;;;;;;46.22;15.20;;;;;;;;;;4835558;29;20022;-94
2022/12/18 06:38:42;;;;;;;48.45;16.77;;;;;;;;;;4831423;29;20045;-96
2022/12/18 06:41:09;;;;;;;49.15;15.95;;;;;;;;;;4821786;29;20052;-95
2022/12/18 06:43:35;;;;;;;49.35;17.10;;;;;;;;;;4832881;29;20240;-96
2022/12/18 06:46:03;;;;;;;52.97;15.88;;;;;;;;;;4913018;29;20120;-95
2022/12/18 06:48:29;;;;;;;48.47;16.27;;;;;;;;;;4930537;29;20518;-95
2022/12/18 06:50:57;;;;;;;50.45;18.02;;;;;;;;;;4912237;29;20071;-95
2022/12/18 06:53:23;;;;;;;54.42;17.25;;;;;;;;;;4914558;29;20535;-95
2022/12/18 06:55:59;;;;;;;51.58;17.58;;;;;;;;;;4914419;29;20084;-95
2022/12/18 06:58:37;;;;;;;61.47;19.48;;;;;;;;;;4911023;29;20127;-94
2022/12/18 07:01:08;;;;;;;50.65;19.80;;;;;;;;;;4914124;29;20537;-94
2022/12/18 07:03:38;;;;;;;53.75;19.27;;;;;;;;;;4910994;29;20139;-94
2022/12/18 07:06:03;;;;;;;64.53;21.23;;;;;;;;;;4918049;29;20032;-94
2022/12/18 07:08:29;;;;;;;59.97;19.52;;;;;;;;;;4913017;29;20039;-95
2022/12/18 07:10:55;;;;;;;67.32;20.67;;;;;;;;;;4915856;29;20027;-96
2022/12/18 07:13:24;;;;;;;62.25;20.95;;;;;;;;;;4904644;29;20127;-94
2022/12/18 07:15:49;;;;;;;57.08;20.58;;;;;;;;;;4919941;29;20554;-94
2022/12/18 07:18:52;;;;;;;62.58;20.45;;;;;;;;;;4913639;29;20043;-95
2022/12/18 07:30:56;;;;;;;55.75;20.50;;;;;;;;;;4892346;29;20084;-92
2022/12/18 07:33:03;;;;;;;53.60;18.60;;;;;;;;;;4879685;29;20032;-94
2022/12/18 07:35:32;;;;;;;60.65;20.38;;;;;;;;;;4871746;29;20075;-93
2022/12/18 07:38:28;;;;;;;61.50;21.25;;;;;;;;;;4887509;29;20056;-92
2022/12/18 07:40:54;;;;;;;60.60;21.63;;;;;;;;;;4884325;29;20489;-93
2022/12/18 07:43:25;;;;;;;62.40;21.35;;;;;;;;;;4872888;29;20043;-93
2022/12/18 07:46:07;;;;;;;56.90;20.85;;;;;;;;;;4887708;29;20475;-93
2022/12/18 07:51:32;;;;;;;59.85;20.75;;;;;;;;;;4887536;29;20795;-93
2022/12/18 07:53:58;;;;;;;57.47;21.10;;;;;;;;;;4887368;29;20036;-93
2022/12/18 07:56:33;;;;;;;63.10;21.73;;;;;;;;;;4863771;29;20033;-93
2022/12/18 07:59:05;;;;;;;58.97;19.75;;;;;;;;;;4888185;29;20028;-93
2022/12/18 08:01:40;;;;;;;73.63;22.45;;;;;;;;;;4902064;29;20093;-92
2022/12/18 08:04:23;;;;;;;;;;;;;;;;;;;;;
2022/12/18 08:07:37;;;;;;;59.80;20.88;;;;;;;;;;4903000;29;20058;-93
2022/12/18 08:10:03;;;;;;;65.88;22.42;;;;;;;;;;4907096;29;20032;-92
2022/12/18 08:12:40;;;;;;;58.75;21.30;;;;;;;;;;4906447;29;20031;-92
2022/12/18 08:18:23;;;;;;;60.65;21.55;;;;;;;;;;4906658;29;20104;-93
2022/12/18 08:20:48;;;;;;;67.20;21.60;;;;;;;;;;4905452;29;20053;-93
2022/12/18 08:23:13;;;;;;;60.72;20.55;;;;;;;;;;4904207;29;20024;-91
2022/12/18 08:25:39;;;;;;;62.13;21.33;;;;;;;;;;4904724;29;20395;-93
2022/12/18 08:28:27;;;;;;;58.17;19.48;;;;;;;;;;4900899;29;20039;-93
2022/12/18 08:30:58;;;;;;;60.08;20.52;;;;;;;;;;4919139;29;20028;-93
2022/12/18 08:33:34;;;;;;;60.65;21.15;;;;;;;;;;4905174;29;20031;-93
2022/12/18 08:36:00;;;;;;;61.58;20.45;;;;;;;;;;4906700;29;20024;-93
2022/12/18 08:38:26;;;;;;;54.13;17.60;;;;;;;;;;4908853;29;20031;-93
2022/12/18 08:41:01;;;;;;;57.10;20.33;;;;;;;;;;4904515;29;20542;-93
2022/12/18 08:46:14;;;;;;;55.83;18.98;;;;;;;;;;4911333;29;20087;-96
2022/12/18 08:49:18;;;;;;;56.08;19.27;;;;;;;;;;4906679;29;20119;-96
2022/12/18 08:51:56;;;;;;;;;;;;;;;;;;;;;
2022/12/18 08:57:23;;;;;;;55.85;17.98;;;;;;;;;;4909794;29;20047;-96
2022/12/18 08:59:53;;;;;;;48.42;17.00;;;;;;;;;;4909722;29;20028;-96
2022/12/18 09:02:37;;;;;;;48.60;18.00;;;;;;;;;;4907967;29;20036;-95
2022/12/18 09:05:19;;;;;;;52.28;18.60;;;;;;;;;;4909829;29;20092;-95
2022/12/18 09:07:57;;;;;;;53.97;19.05;;;;;;;;;;4909115;29;20044;-96
2022/12/18 09:10:29;;;;;;;58.63;19.63;;;;;;;;;;4911947;29;20036;-96
2022/12/18 09:13:15;;;;;;;;;;;;;;;;;;;;;
2022/12/18 09:22:43;;;;;;;57.00;18.30;;;;;;;;;;4906472;29;20036;-96
2022/12/18 09:25:35;;;;;;;63.88;19.35;;;;;;;;;;4832069;29;20034;-95
2022/12/18 09:28:07;;;;;;;51.03;16.98;;;;;;;;;;4815577;29;20037;-95
2022/12/18 09:30:33;;;;;;;53.67;17.42;;;;;;;;;;4831633;29;20099;-94
2022/12/18 09:32:59;;;;;;;55.17;18.42;;;;;;;;;;4817579;29;20037;-95
2022/12/18 09:35:42;;;;;;;54.53;17.25;;;;;;;;;;4834038;29;20038;-94
2022/12/18 09:38:11;;;;;;;55.63;18.33;;;;;;;;;;4830899;29;20061;-95
2022/12/18 09:54:03;;;;;;;59.28;18.80;;;;;;;;;;4815892;29;20053;-95
2022/12/18 09:59:19;;;;;;;53.65;16.35;;;;;;;;;;4907896;29;21760;-95
2022/12/18 10:01:44;;;;;;;50.20;16.60;;;;;;;;;;4919442;29;20028;-94
2022/12/18 10:04:10;;;;;;;51.47;16.85;;;;;;;;;;4906903;29;20035;-96
2022/12/18 10:06:39;;;;;;;51.55;17.13;;;;;;;;;;4909114;29;20029;-96
2022/12/18 10:09:26;;;;;;;49.83;15.68;;;;;;;;;;4906062;29;20019;-95
2022/12/18 10:12:01;;;;;;;52.63;17.02;;;;;;;;;;4907021;29;20052;-94
2022/12/18 10:14:33;;;;;;;46.97;16.77;;;;;;;;;;4901701;29;20035;-95
2022/12/18 10:17:07;;;;;;;49.40;16.37;;;;;;;;;;4905304;29;23117;-94
2022/12/18 10:19:49;;;;;;;49.53;16.83;;;;;;;;;;4908201;29;20041;-95
2022/12/18 10:22:40;;;;;;;52.53;15.75;;;;;;;;;;4907925;29;20556;-94
2022/12/18 10:25:14;;;;;;;45.85;15.55;;;;;;;;;;4908501;29;20036;-94
2022/12/18 10:27:40;;;;;;;48.50;15.95;;;;;;;;;;4908514;29;20028;-94
2022/12/18 10:30:13;;;;;;;46.15;15.02;;;;;;;;;;4909468;29;20388;-95
2022/12/18 10:32:39;;;;;;;47.17;16.45;;;;;;;;;;4909122;29;20047;-93
2022/12/18 10:35:05;;;;;;;45.30;15.45;;;;;;;;;;4907750;29;20044;-94
2022/12/18 10:37:30;;;;;;;50.65;16.77;;;;;;;;;;4916920;29;20031;-95
2022/12/18 10:40:08;;;;;;;45.88;14.27;;;;;;;;;;4914661;29;20024;-94
2022/12/18 10:42:33;;;;;;;56.28;16.73;;;;;;;;;;4926373;29;20036;-95
2022/12/18 10:45:08;;;;;;;50.83;14.77;;;;;;;;;;4914857;29;20416;-95
2022/12/18 10:47:34;;;;;;;45.13;15.40;;;;;;;;;;4930346;29;20048;-95
2022/12/18 10:49:59;;;;;;;45.65;16.05;;;;;;;;;;4916498;29;20120;-94
2022/12/18 10:52:26;;;;;;;43.45;15.00;;;;;;;;;;4917427;29;20024;-94
2022/12/18 10:54:52;;;;;;;42.92;15.70;;;;;;;;;;4916495;29;20032;-94
2022/12/18 10:57:33;;;;;;;46.53;15.63;;;;;;;;;;4915904;29;20056;-94
2022/12/18 11:00:00;;;;;;;48.65;15.43;;;;;;;;;;4917373;29;20032;-95
2022/12/18 11:02:28;;;;;;;51.00;14.93;;;;;;;;;;4919670;29;20024;-95
2022/12/18 11:04:53;;;;;;;49.22;15.25;;;;;;;;;;4917863;29;20106;-96
2022/12/18 11:07:19;;;;;;;37.05;14.32;;;;;;;;;;4940742;29;20028;-96
2022/12/18 11:09:58;;;;;;;50.88;16.33;;;;;;;;;;4921217;29;20031;-96
2022/12/18 11:12:24;;;;;;;46.00;15.07;;;;;;;;;;4917663;29;20032;-96
2022/12/18 11:14:50;;;;;;;40.75;14.85;;;;;;;;;;4918347;29;20532;-96
2022/12/18 11:17:20;;;;;;;46.78;16.17;;;;;;;;;;4919217;29;20040;-96
2022/12/18 11:19:51;;;;;;;45.85;15.55;;;;;;;;;;4916947;29;20024;-96
2022/12/18 11:22:21;;;;;;;44.83;14.60;;;;;;;;;;4914073;29;20051;-96
2022/12/18 11:24:53;;;;;;;46.47;15.80;;;;;;;;;;4913234;29;20058;-96
2022/12/18 11:27:22;;;;;;;46.10;15.32;;;;;;;;;;4911604;29;20063;-96
2022/12/18 11:29:49;;;;;;;39.83;14.43;;;;;;;;;;4913205;29;20085;-96
2022/12/18 11:32:14;;;;;;;38.17;14.43;;;;;;;;;;4915435;29;20132;-93
2022/12/18 11:34:41;;;;;;;43.08;14.45;;;;;;;;;;4910499;29;20111;-95
2022/12/18 11:37:09;;;;;;;40.88;14.07;;;;;;;;;;4911951;29;20083;-96
2022/12/18 11:39:39;;;;;;;39.60;13.55;;;;;;;;;;4913148;29;20150;-96
2022/12/18 11:42:25;;;;;;;44.72;15.05;;;;;;;;;;4919549;29;20028;-96
2022/12/18 11:45:09;;;;;;;43.40;15.20;;;;;;;;;;4923788;29;20048;-96
2022/12/18 11:47:42;;;;;;;40.08;15.15;;;;;;;;;;4926625;29;20192;-96
2022/12/18 11:50:17;;;;;;;44.45;15.05;;;;;;;;;;4913738;29;20025;-96
2022/12/18 11:52:51;;;;;;;40.33;14.20;;;;;;;;;;4913759;29;20054;-96
2022/12/18 11:55:31;;;;;;;37.30;13.27;;;;;;;;;;4912292;29;20036;-96
2022/12/18 11:57:57;;;;;;;41.28;14.32;;;;;;;;;;4913380;29;20063;-96
2022/12/18 12:00:23;;;;;;;39.47;14.23;;;;;;;;;;4908134;29;20205;-96
2022/12/18 12:03:05;;;;;;;43.55;14.85;;;;;;;;;;4914571;29;20083;-96
2022/12/18 12:05:36;;;;;;;44.47;14.63;;;;;;;;;;4919023;29;20036;-96
2022/12/18 12:08:09;;;;;;;45.40;14.85;;;;;;;;;;4910372;29;20043;-96
2022/12/18 12:10:37;;;;;;;46.38;15.38;;;;;;;;;;4918641;29;20028;-96
2022/12/18 12:13:03;;;;;;;45.30;15.65;;;;;;;;;;4925331;29;20110;-96
2022/12/18 12:15:35;;;;;;;42.63;14.48;;;;;;;;;;4916507;29;20133;-96
2022/12/18 12:18:10;;;;;;;40.03;14.50;;;;;;;;;;4915815;29;20139;-96
2022/12/18 12:20:41;;;;;;;45.40;15.35;;;;;;;;;;4930449;29;20043;-96
2022/12/18 12:23:15;;;;;;;40.83;14.82;;;;;;;;;;4916447;29;20028;-96
2022/12/18 12:25:44;;;;;;;42.05;15.43;;;;;;;;;;4911472;29;20024;-96
2022/12/18 12:28:10;;;;;;;40.00;14.20;;;;;;;;;;4917333;29;20554;-96
2022/12/18 12:30:43;;;;;;;45.10;15.60;;;;;;;;;;4918790;29;20035;-96
2022/12/18 12:33:08;;;;;;;37.80;14.80;;;;;;;;;;4916761;29;20028;-96
2022/12/18 12:35:55;;;;;;;39.08;14.93;;;;;;;;;;4916668;29;20031;-96
2022/12/18 12:38:28;;;;;;;44.05;15.52;;;;;;;;;;4912902;29;20028;-96
2022/12/18 12:40:59;;;;;;;43.03;14.55;;;;;;;;;;4914531;29;20031;-96
2022/12/18 12:43:24;;;;;;;41.65;14.43;;;;;;;;;;4924262;29;20091;-96
2022/12/18 12:45:56;;;;;;;43.70;15.47;;;;;;;;;;4917469;29;20122;-96
2022/12/18 12:48:32;;;;;;;44.63;15.75;;;;;;;;;;4925853;29;20301;-96
2022/12/18 12:51:06;;;;;;;46.25;15.52;;;;;;;;;;4905185;29;20048;-96
2022/12/18 12:53:35;;;;;;;39.85;14.57;;;;;;;;;;4910843;29;20016;-96
2022/12/18 12:56:04;;;;;;;47.25;16.30;;;;;;;;;;4918141;29;20012;-96
2022/12/18 12:58:43;;;;;;;34.60;13.55;;;;;;;;;;4918511;29;20047;-96
2022/12/18 13:01:19;;;;;;;40.13;15.35;;;;;;;;;;4922998;29;20091;-96
2022/12/18 13:03:48;;;;;;;38.47;14.90;;;;;;;;;;4925584;29;20024;-96
2022/12/18 13:06:39;;;;;;;47.95;16.58;;;;;;;;;;4940380;29;20580;-96
2022/12/18 13:09:07;;;;;;;41.83;14.30;;;;;;;;;;4935411;29;20048;-96
2022/12/18 13:14:37;;;;;;;40.25;15.13;;;;;;;;;;4939865;29;20031;-96
2022/12/18 13:20:29;;;;;;;39.55;15.02;;;;;;;;;;4935333;29;20039;-96
2022/12/18 13:23:00;;;;;;;;;;;;;;;;;;4941289;29;20040;-96
2022/12/18 13:25:49;;;;;;;41.25;14.80;;;;;;;;;;4942988;29;19906;-96
2022/12/18 13:28:17;;;;;;;38.38;15.35;;;;;;;;;;4930244;29;20040;-96
2022/12/18 13:30:46;;;;;;;39.03;14.05;;;;;;;;;;4934819;29;20035;-96
2022/12/18 13:33:19;;;;;;;46.75;15.75;;;;;;;;;;4932241;29;20043;-96
2022/12/18 13:35:48;;;;;;;37.17;16.70;;;;;;;;;;4929614;29;20028;-96
2022/12/18 13:38:20;;;;;;;41.30;15.35;;;;;;;;;;4930901;29;20028;-96
2022/12/18 13:40:47;;;;;;;42.47;15.30;;;;;;;;;;4934329;29;20031;-96
2022/12/18 13:43:24;;;;;;;43.70;15.00;;;;;;;;;;4934113;29;20076;-96
2022/12/18 13:46:08;;;;;;;48.47;15.93;;;;;;;;;;4941413;29;20040;-96
2022/12/18 13:48:40;;;;;;;43.03;15.88;;;;;;;;;;4923507;29;20896;-96
2022/12/18 13:51:10;;;;;;;39.83;15.68;;;;;;;;;;4947039;29;20024;-96
2022/12/18 13:53:46;;;;;;;42.88;15.02;;;;;;;;;;4929883;29;20031;-96
2022/12/18 13:56:33;;;;;;;39.83;15.15;;;;;;;;;;4941659;29;20024;-96
2022/12/18 13:59:13;;;;;;;42.20;15.60;;;;;;;;;;4932994;29;20061;-96
2022/12/18 14:01:43;;;;;;;44.45;15.65;;;;;;;;;;4924235;29;20047;-96
2022/12/18 14:04:34;;;;;;;40.67;15.20;;;;;;;;;;4924430;29;20028;-96
2022/12/18 14:07:15;;;;;;;45.85;16.15;;;;;;;;;;4944287;29;20021;-96
2022/12/18 14:09:43;;;;;;;42.90;15.57;;;;;;;;;;4925364;29;20043;-96
2022/12/18 14:15:03;;;;;;;43.10;13.95;;;;;;;;;;4927463;29;20027;-96
2022/12/18 14:17:31;;;;;;;37.58;14.40;;;;;;;;;;4945216;29;20038;-96
2022/12/18 14:19:58;;;;;;;41.60;15.75;;;;;;;;;;4938063;29;20375;-96
2022/12/18 14:22:29;;;;;;;38.90;14.18;;;;;;;;;;4918171;29;20095;-96
2022/12/18 14:25:13;;;;;;;41.03;15.25;;;;;;;;;;4917877;29;20039;-96
2022/12/18 14:27:44;;;;;;;47.13;16.70;;;;;;;;;;4923502;29;20099;-96
2022/12/18 14:30:36;;;;;;;48.88;15.55;;;;;;;;;;4914418;29;20601;-96
2022/12/18 14:33:09;;;;;;;47.55;16.17;;;;;;;;;;4919681;29;20036;-96
2022/12/18 14:35:36;;;;;;;43.13;16.70;;;;;;;;;;4925737;29;20092;-96
2022/12/18 14:38:20;;;;;;;41.15;15.38;;;;;;;;;;4918171;29;20036;-96
2022/12/18 14:40:46;;;;;;;36.30;14.45;;;;;;;;;;4933472;29;20034;-96
2022/12/18 14:43:11;;;;;;;42.40;15.20;;;;;;;;;;4911785;29;20048;-96
2022/12/18 14:45:38;;;;;;;42.25;15.55;;;;;;;;;;4911511;29;20035;-96
2022/12/18 14:48:08;;;;;;;42.65;14.65;;;;;;;;;;4912113;29;20032;-95
2022/12/18 14:50:34;;;;;;;40.88;16.25;;;;;;;;;;4910377;29;20040;-95
2022/12/18 14:52:59;;;;;;;35.95;13.85;;;;;;;;;;4916603;29;20020;-96
2022/12/18 14:55:25;;;;;;;43.70;16.35;;;;;;;;;;4917167;29;20028;-96
2022/12/18 14:57:55;;;;;;;33.90;13.65;;;;;;;;;;4914774;29;20080;-96
2022/12/18 15:00:22;;;;;;;44.08;14.98;;;;;;;;;;4912346;29;20079;-96
2022/12/18 15:02:53;;;;;;;39.67;15.10;;;;;;;;;;4914709;29;20036;-96
2022/12/18 15:05:18;;;;;;;36.45;14.38;;;;;;;;;;4913725;29;20441;-95
2022/12/18 15:07:43;;;;;;;40.05;14.75;;;;;;;;;;4915620;29;20024;-95
2022/12/18 15:10:14;;;;;;;36.38;13.93;;;;;;;;;;4915575;29;20024;-96
2022/12/18 15:12:49;;;;;;;37.20;14.05;;;;;;;;;;4914240;29;21173;-96
2022/12/18 15:15:33;;;;;;;37.97;15.45;;;;;;;;;;4921764;29;20090;-96
2022/12/18 15:17:59;;;;;;;41.50;13.90;;;;;;;;;;4917768;29;20066;-96
2022/12/18 15:20:24;;;;;;;37.08;13.48;;;;;;;;;;4917266;29;20263;-96
2022/12/18 15:22:49;;;;;;;34.85;12.65;;;;;;;;;;4917666;29;20028;-96
2022/12/18 15:25:31;;;;;;;33.97;12.68;;;;;;;;;;4917985;29;20104;-96
2022/12/18 15:27:56;;;;;;;35.58;12.25;;;;;;;;;;4915751;29;20096;-96
2022/12/18 15:30:22;;;;;;;32.25;13.38;;;;;;;;;;4922437;29;20152;-95
2022/12/18 15:32:49;;;;;;;31.17;12.40;;;;;;;;;;4921573;29;20024;-96
2022/12/18 15:35:24;;;;;;;31.48;13.02;;;;;;;;;;4920387;29;20036;-96
2022/12/18 15:37:51;;;;;;;35.85;13.15;;;;;;;;;;4925302;29;20079;-96
2022/12/18 15:40:18;;;;;;;33.05;12.25;;;;;;;;;;4921139;29;20080;-96
2022/12/18 15:45:28;;;;;;;37.28;12.68;;;;;;;;;;4919800;29;20030;-94
2022/12/18 15:47:54;;;;;;;43.97;12.52;;;;;;;;;;4927138;29;20087;-95
2022/12/18 15:50:23;;;;;;;53.83;13.35;;;;;;;;;;4922730;29;20028;-95
2022/12/18 15:52:49;;;;;;;44.67;11.88;;;;;;;;;;4913263;29;20052;-96